Terminal Aerodrome Forecast
Issued by NWS Grand Forks, ND

Home | Current Version | Previous Version | Text Only | Print | Product List | Glossary On
Versions: 1 2 3 4 5 6 7 8 9 10 11 12 13 14 15 16 17 18 19 20 21 22
000
FTUS43 KFGF 260100 AAA
TAFGFK
TAF AMD
KGFK 260129Z 2601/2624 04010KT P6SM -SN OVC035
      TEMPO 2601/2605 1SM -SN BR OVC015
     FM260600 35014KT P6SM OVC025
     FM261200 35016KT P6SM OVC050
     FM261500 35013G20KT P6SM FEW050=

USA.gov is the U.S. government's official web portal to all federal, state and local government web resources and services.